createdAt,value
2019-04-25T00:00:38.068Z,4.43
2019-04-25T00:03:07.065Z,3.70
2019-04-25T00:05:36.292Z,3.10
2019-04-25T00:08:05.313Z,3.30
2019-04-25T00:10:33.881Z,2.30
2019-04-25T00:13:03.629Z,2.57
2019-04-25T00:15:32.452Z,2.33
2019-04-25T00:18:02.325Z,2.37
2019-04-25T00:20:32.807Z,2.30
2019-04-25T00:23:08.743Z,1.80
2019-04-25T00:25:38.941Z,2.20
2019-04-25T00:28:08.677Z,2.20
2019-04-25T00:30:37.402Z,2.00
2019-04-25T00:33:06.107Z,1.70
2019-04-25T00:35:34.893Z,1.80
2019-04-25T00:38:03.646Z,1.80
2019-04-25T00:40:32.300Z,2.00
2019-04-25T00:43:01.624Z,1.57
2019-04-25T00:45:31.692Z,1.70
2019-04-25T00:48:04.112Z,1.70
2019-04-25T00:50:31.953Z,1.43
2019-04-25T00:53:01.205Z,1.60
2019-04-25T00:55:31.440Z,2.00
2019-04-25T00:58:03.357Z,1.63
2019-04-25T01:00:51.080Z,1.40
2019-04-25T01:03:27.310Z,1.67
2019-04-25T01:05:55.905Z,1.70
2019-04-25T01:08:25.022Z,1.20
2019-04-25T01:10:54.243Z,1.30
2019-04-25T01:13:22.870Z,1.27
2019-04-25T01:15:52.890Z,1.10
2019-04-25T01:18:23.181Z,1.30
2019-04-25T01:20:53.630Z,1.23
2019-04-25T01:23:23.703Z,1.33
2019-04-25T01:25:53.746Z,1.10
2019-04-25T01:28:24.325Z,1.37
2019-04-25T01:30:54.769Z,1.20
2019-04-25T01:33:23.573Z,1.10
2019-04-25T01:35:56.954Z,1.20
2019-04-25T01:38:27.185Z,1.30
2019-04-25T01:41:14.607Z,1.33
2019-04-25T01:43:49.076Z,1.20
2019-04-25T01:46:18.285Z,1.00
2019-04-25T01:48:46.777Z,1.20
2019-04-25T01:51:15.433Z,1.17
2019-04-25T01:53:44.215Z,1.20
2019-04-25T01:56:13.619Z,1.20
2019-04-25T01:58:43.826Z,1.30
2019-04-25T02:01:14.361Z,1.23
2019-04-25T02:03:44.240Z,1.40
2019-04-25T02:06:13.686Z,1.43
2019-04-25T02:08:43.899Z,1.20
2019-04-25T02:11:16.933Z,1.20
2019-04-25T02:13:45.557Z,1.47
2019-04-25T02:16:14.556Z,1.20
2019-04-25T02:18:43.582Z,0.97
2019-04-25T02:21:13.757Z,1.30
2019-04-25T02:23:44.141Z,1.30
2019-04-25T02:26:17.902Z,1.30
2019-04-25T02:28:43.736Z,1.30
2019-04-25T02:31:18.003Z,1.10
2019-04-25T02:33:44.322Z,1.60
2019-04-25T02:36:15.112Z,2.07
2019-04-25T02:38:44.261Z,1.27
2019-04-25T02:41:14.758Z,1.40
2019-04-25T02:43:45.001Z,1.43
2019-04-25T02:46:31.759Z,1.27
2019-04-25T02:49:04.123Z,1.40
2019-04-25T02:51:34.982Z,1.37
2019-04-25T02:54:06.783Z,1.40
2019-04-25T02:56:38.244Z,1.47
2019-04-25T02:59:07.051Z,1.27
2019-04-25T03:01:34.955Z,1.40
2019-04-25T03:04:08.596Z,1.60
2019-04-25T03:06:35.058Z,2.00
2019-04-25T03:09:06.478Z,1.47
2019-04-25T03:11:35.827Z,1.37
2019-04-25T03:14:08.250Z,1.30
2019-04-25T03:16:36.358Z,1.63
2019-04-25T03:19:18.795Z,1.40
2019-04-25T03:21:49.050Z,1.20
2019-04-25T03:24:17.696Z,1.50
2019-04-25T03:26:46.489Z,1.60
2019-04-25T03:29:15.143Z,2.00
2019-04-25T03:31:44.961Z,1.40
2019-04-25T03:34:19.256Z,1.40
2019-04-25T03:36:44.114Z,1.80
2019-04-25T03:39:14.542Z,1.77
2019-04-25T03:41:43.873Z,1.80
2019-04-25T03:44:13.985Z,1.90
2019-04-25T03:46:43.824Z,1.80
2019-04-25T03:49:13.920Z,1.80
2019-04-25T03:51:43.910Z,2.10
2019-04-25T03:54:14.317Z,2.30
2019-04-25T03:56:53.204Z,2.27
2019-04-25T03:59:14.615Z,2.30
2019-04-25T04:01:43.892Z,2.10
2019-04-25T04:04:15.770Z,1.97
2019-04-25T04:06:44.073Z,1.80
2019-04-25T04:09:14.266Z,1.50
2019-04-25T04:11:43.535Z,1.40
2019-04-25T04:14:12.885Z,1.67
2019-04-25T04:16:44.389Z,1.97
2019-04-25T04:19:14.774Z,1.50
2019-04-25T04:21:45.696Z,1.80
2019-04-25T04:24:18.302Z,1.70
2019-04-25T04:26:48.537Z,1.60
2019-04-25T04:29:17.090Z,1.70
2019-04-25T04:31:45.669Z,1.87
2019-04-25T04:34:15.406Z,1.93
2019-04-25T04:36:46.521Z,2.27
2019-04-25T04:39:16.844Z,2.13
2019-04-25T04:41:44.715Z,2.00
2019-04-25T04:44:14.330Z,2.07
2019-04-25T04:46:43.998Z,1.47
2019-04-25T04:49:14.181Z,1.70
2019-04-25T04:51:44.311Z,1.90
2019-04-25T04:54:14.141Z,1.80
2019-04-25T04:56:43.812Z,2.03
2019-04-25T04:59:14.288Z,2.03
2019-04-25T05:01:59.723Z,2.00
2019-04-25T05:04:39.095Z,2.00
2019-04-25T05:07:09.293Z,1.60
2019-04-25T05:09:37.851Z,1.30
2019-04-25T05:12:06.445Z,1.20
2019-04-25T05:14:34.982Z,1.40
2019-04-25T05:17:04.345Z,1.20
2019-04-25T05:19:33.559Z,1.30
2019-04-25T05:22:03.648Z,1.40
2019-04-25T05:24:33.788Z,1.30
2019-04-25T05:27:03.877Z,1.33
2019-04-25T05:29:33.888Z,1.30
2019-04-25T05:32:04.147Z,1.30
2019-04-25T05:34:34.458Z,1.40
2019-04-25T05:37:03.861Z,1.10
2019-04-25T05:39:33.426Z,1.20
2019-04-25T05:42:14.135Z,1.00
2019-04-25T05:44:44.033Z,1.53
2019-04-25T05:47:13.814Z,1.00
2019-04-25T05:49:44.095Z,1.47
2019-04-25T05:52:13.985Z,1.20
2019-04-25T05:54:44.265Z,1.20
2019-04-25T05:57:13.778Z,1.70
2019-04-25T05:59:43.661Z,1.80
2019-04-25T06:02:13.882Z,2.00
2019-04-25T06:04:43.567Z,1.30
2019-04-25T06:07:12.193Z,1.10
2019-04-25T06:09:44.254Z,1.40
2019-04-25T06:12:14.203Z,1.50
2019-04-25T06:14:43.375Z,1.10
2019-04-25T06:17:16.633Z,1.00
2019-04-25T06:19:46.861Z,1.50
2019-04-25T06:22:20.860Z,1.07
2019-04-25T06:24:51.209Z,1.00
2019-04-25T06:27:22.085Z,1.00
2019-04-25T06:29:59.010Z,0.90
2019-04-25T06:32:24.566Z,0.80
2019-04-25T06:34:54.247Z,1.00
2019-04-25T06:37:24.639Z,0.80
2019-04-25T06:39:53.700Z,1.10
2019-04-25T06:42:23.033Z,0.80
2019-04-25T06:44:56.993Z,0.90
2019-04-25T06:47:34.128Z,0.70
2019-04-25T06:50:04.202Z,1.10
2019-04-25T06:52:35.315Z,0.97
2019-04-25T06:55:03.843Z,0.87
2019-04-25T06:57:33.974Z,0.70
2019-04-25T07:00:04.467Z,0.80
2019-04-25T07:02:35.029Z,0.80
2019-04-25T07:05:05.358Z,0.70
2019-04-25T07:07:35.078Z,0.80
2019-04-25T07:10:05.896Z,0.70
2019-04-25T07:12:35.976Z,1.00
2019-04-25T07:15:09.670Z,0.80
2019-04-25T07:17:38.329Z,0.70
2019-04-25T07:20:11.753Z,1.13
2019-04-25T07:22:40.872Z,0.63
2019-04-25T07:25:13.184Z,0.83
2019-04-25T07:28:00.020Z,0.80
2019-04-25T07:30:43.837Z,0.73
2019-04-25T07:33:11.470Z,0.73
2019-04-25T07:35:40.089Z,0.70
2019-04-25T07:38:08.686Z,0.70
2019-04-25T07:40:37.233Z,0.50
2019-04-25T07:43:06.025Z,0.77
2019-04-25T07:45:36.249Z,0.70
2019-04-25T07:48:05.377Z,0.60
2019-04-25T07:50:35.330Z,0.67
2019-04-25T07:53:05.695Z,0.83
2019-04-25T07:55:36.339Z,0.90
2019-04-25T07:58:04.915Z,0.80
2019-04-25T08:00:35.127Z,0.90
2019-04-25T08:03:04.122Z,0.60
2019-04-25T08:05:35.107Z,0.60
2019-04-25T08:08:03.921Z,0.60
2019-04-25T08:10:35.985Z,0.80
2019-04-25T08:13:04.941Z,0.63
2019-04-25T08:15:50.611Z,0.40
2019-04-25T08:18:19.307Z,0.50
2019-04-25T08:20:48.121Z,0.50
2019-04-25T08:23:17.043Z,0.40
2019-04-25T08:25:45.722Z,0.50
2019-04-25T08:28:14.275Z,0.50
2019-04-25T08:30:43.646Z,0.60
2019-04-25T08:33:13.762Z,0.80
2019-04-25T08:36:03.053Z,0.50
2019-04-25T08:38:13.786Z,0.50
2019-04-25T08:40:43.956Z,0.60
2019-04-25T08:43:14.549Z,0.70
2019-04-25T08:45:44.232Z,0.60
2019-04-25T08:48:13.595Z,0.77
2019-04-25T08:50:44.460Z,0.63
2019-04-25T08:53:13.697Z,0.60
2019-04-25T08:55:45.722Z,0.80
2019-04-25T08:58:21.736Z,0.70
2019-04-25T09:01:00.756Z,0.60
2019-04-25T09:03:42.303Z,0.50
2019-04-25T09:06:13.346Z,0.67
2019-04-25T09:08:45.362Z,0.60
2019-04-25T09:11:13.342Z,0.50
2019-04-25T09:13:43.475Z,0.60
2019-04-25T09:16:13.525Z,0.60
2019-04-25T09:18:44.321Z,0.40
2019-04-25T09:21:13.776Z,0.60
2019-04-25T09:23:43.763Z,0.50
2019-04-25T09:26:14.187Z,0.50
2019-04-25T09:28:45.330Z,0.60
2019-04-25T09:31:13.970Z,0.50
2019-04-25T09:33:45.046Z,0.40
2019-04-25T09:36:14.172Z,0.50
2019-04-25T09:38:46.661Z,0.50
2019-04-25T09:41:15.060Z,0.50
2019-04-25T09:43:45.595Z,0.60
2019-04-25T09:46:24.882Z,0.40
2019-04-25T09:48:57.791Z,0.57
2019-04-25T09:51:35.870Z,0.83
2019-04-25T09:54:09.149Z,0.60
2019-04-25T09:56:39.308Z,0.43
2019-04-25T09:59:26.787Z,0.60
2019-04-25T10:01:48.225Z,0.50
2019-04-25T10:04:16.920Z,0.60
2019-04-25T10:06:46.057Z,0.50
2019-04-25T10:09:15.706Z,0.50
2019-04-25T10:11:45.399Z,0.40
2019-04-25T10:14:29.839Z,0.50
2019-04-25T10:16:59.603Z,0.40
2019-04-25T10:19:28.268Z,0.50
2019-04-25T10:21:56.896Z,0.50
2019-04-25T10:24:25.554Z,0.50
2019-04-25T10:26:54.756Z,0.40
2019-04-25T10:29:23.452Z,0.70
2019-04-25T10:31:51.947Z,0.60
2019-04-25T10:34:20.601Z,0.83
2019-04-25T10:36:49.162Z,0.47
2019-04-25T10:39:17.851Z,0.50
2019-04-25T10:41:47.027Z,0.55
2019-04-25T10:44:16.722Z,0.68
2019-04-25T10:46:46.906Z,0.50
2019-04-25T10:49:15.733Z,0.60
2019-04-25T10:51:45.748Z,0.70
2019-04-25T10:54:14.697Z,0.75
2019-04-25T10:56:45.687Z,0.80
2019-04-25T10:59:14.425Z,0.70
2019-04-25T11:01:45.063Z,0.70
2019-04-25T11:04:15.167Z,0.72
2019-04-25T11:06:45.390Z,0.70
2019-04-25T11:09:18.907Z,0.65
2019-04-25T11:11:48.153Z,1.00
2019-04-25T11:14:16.949Z,0.93
2019-04-25T11:16:46.606Z,1.85
2019-04-25T11:19:15.370Z,0.70
2019-04-25T11:21:45.299Z,1.30
2019-04-25T11:24:14.374Z,0.90
2019-04-25T11:26:47.145Z,1.30
2019-04-25T11:29:13.308Z,1.20
2019-04-25T11:31:47.244Z,2.00
2019-04-25T11:34:17.165Z,1.42
2019-04-25T11:36:46.150Z,1.60
2019-04-25T11:39:32.316Z,1.42
2019-04-25T11:42:01.540Z,1.40
2019-04-25T11:44:30.154Z,1.20
2019-04-25T11:46:58.876Z,1.30
2019-04-25T11:49:27.357Z,1.50
2019-04-25T11:51:56.007Z,1.30
2019-04-25T11:54:24.685Z,1.50
2019-04-25T11:56:54.767Z,1.30
2019-04-25T11:59:23.727Z,1.65
2019-04-25T12:01:54.796Z,1.77
2019-04-25T12:04:23.950Z,1.57
2019-04-25T12:06:53.219Z,1.85
2019-04-25T12:11:58.014Z,2.10
2019-04-25T12:14:26.803Z,2.20
2019-04-25T12:16:56.281Z,2.30
2019-04-25T12:19:35.003Z,2.45
2019-04-25T12:21:56.764Z,2.98
2019-04-25T12:24:25.395Z,2.80
2019-04-25T12:26:55.113Z,3.00
2019-04-25T12:29:24.465Z,2.70
2019-04-25T12:31:54.615Z,3.02
2019-04-25T12:34:24.311Z,2.92
2019-04-25T12:36:54.491Z,3.08
2019-04-25T12:39:24.263Z,3.52
2019-04-25T12:41:54.474Z,3.58
2019-04-25T12:44:36.925Z,3.35
2019-04-25T12:47:25.413Z,3.20
2019-04-25T12:49:54.879Z,3.35
2019-04-25T12:52:24.661Z,3.40
2019-04-25T12:54:54.045Z,3.83
2019-04-25T12:57:24.138Z,3.80
2019-04-25T12:59:55.128Z,4.42
2019-04-25T13:02:23.544Z,4.35
2019-04-25T13:04:52.179Z,4.60
2019-04-25T13:07:20.727Z,4.67
2019-04-25T13:09:52.256Z,4.50
2019-04-25T13:12:20.177Z,4.55
2019-04-25T13:14:48.759Z,4.20
2019-04-25T13:17:17.319Z,4.15
2019-04-25T13:19:45.966Z,4.03
2019-04-25T13:22:14.822Z,3.22
2019-04-25T13:24:43.406Z,2.70
2019-04-25T13:27:23.475Z,2.58
2019-04-25T13:29:57.250Z,1.80
2019-04-25T13:32:36.298Z,1.70
2019-04-25T13:35:15.615Z,1.40
2019-04-25T13:37:44.234Z,1.00
2019-04-25T13:40:13.223Z,0.90
2019-04-25T13:42:43.190Z,0.80
2019-04-25T13:45:14.312Z,0.50
2019-04-25T13:47:42.896Z,0.50
2019-04-25T13:50:12.918Z,0.50
2019-04-25T13:52:43.257Z,0.55
2019-04-25T13:55:13.610Z,0.57
2019-04-25T13:57:42.421Z,0.60
2019-04-25T14:00:11.769Z,0.50
2019-04-25T14:02:40.382Z,0.50
2019-04-25T14:05:09.171Z,0.60
2019-04-25T14:07:37.751Z,0.33
2019-04-25T14:10:06.478Z,0.53
2019-04-25T14:12:35.059Z,0.50
2019-04-25T14:15:05.640Z,1.03
2019-04-25T14:17:35.864Z,0.70
2019-04-25T14:20:07.593Z,0.50
2019-04-25T14:22:36.165Z,0.40
2019-04-25T14:25:05.966Z,0.50
2019-04-25T14:27:34.576Z,0.60
2019-04-25T14:30:03.957Z,0.50
2019-04-25T14:32:33.938Z,0.53
2019-04-25T14:35:03.400Z,0.50
2019-04-25T14:37:38.896Z,0.50
2019-04-25T14:40:03.931Z,0.73
2019-04-25T14:42:33.137Z,0.63
2019-04-25T14:45:01.812Z,0.70
2019-04-25T14:47:30.367Z,0.70
2019-04-25T14:49:58.913Z,0.50
2019-04-25T14:52:28.081Z,0.63
2019-04-25T14:54:58.374Z,0.90
2019-04-25T14:57:29.705Z,0.70
2019-04-25T15:00:01.851Z,0.50
2019-04-25T15:02:30.464Z,0.70
2019-04-25T15:05:18.332Z,0.50
2019-04-25T15:07:46.930Z,0.53
2019-04-25T15:10:15.554Z,0.60
2019-04-25T15:12:44.102Z,0.57
2019-04-25T15:15:12.915Z,0.80
2019-04-25T15:17:46.307Z,0.50
2019-04-25T15:20:11.758Z,0.60
2019-04-25T15:22:40.303Z,0.30
2019-04-25T15:25:08.886Z,0.60
2019-04-25T15:27:37.765Z,0.50
2019-04-25T15:30:08.866Z,0.60
2019-04-25T15:32:37.526Z,0.40
2019-04-25T15:35:08.158Z,0.60
2019-04-25T15:37:38.502Z,0.30
2019-04-25T15:40:09.466Z,0.60
2019-04-25T15:42:42.486Z,0.60
2019-04-25T15:45:29.260Z,0.40
2019-04-25T15:47:58.298Z,0.70
2019-04-25T15:50:27.689Z,0.50
2019-04-25T15:52:56.341Z,0.50
2019-04-25T15:55:24.990Z,0.50
2019-04-25T15:57:53.543Z,0.50
2019-04-25T16:00:27.054Z,0.80
2019-04-25T16:02:55.598Z,0.60
2019-04-25T16:05:24.358Z,0.60
2019-04-25T16:07:52.915Z,0.83
2019-04-25T16:10:21.590Z,1.10
2019-04-25T16:12:50.124Z,0.70
2019-04-25T16:15:18.683Z,0.70
2019-04-25T16:17:47.270Z,0.80
2019-04-25T16:20:15.994Z,0.60
2019-04-25T16:22:44.580Z,0.60
2019-04-25T16:25:13.268Z,0.50
2019-04-25T16:27:41.745Z,0.70
2019-04-25T16:30:10.874Z,1.20
2019-04-25T16:32:39.420Z,0.93
2019-04-25T16:35:08.674Z,1.00
2019-04-25T16:37:37.234Z,2.43
2019-04-25T16:40:06.361Z,3.00
2019-04-25T16:42:35.844Z,3.10
2019-04-25T16:45:06.886Z,3.30
2019-04-25T16:47:35.800Z,2.97
2019-04-25T16:50:06.218Z,3.40
2019-04-25T16:52:35.823Z,3.00
2019-04-25T16:55:08.649Z,3.10
2019-04-25T16:57:37.370Z,2.87
2019-04-25T17:00:09.878Z,3.50
2019-04-25T17:02:41.000Z,3.30
2019-04-25T17:05:09.943Z,3.00
2019-04-25T17:07:38.540Z,3.10
2019-04-25T17:10:08.494Z,3.30
2019-04-25T17:12:37.087Z,2.90
2019-04-25T17:15:25.274Z,3.53
2019-04-25T17:18:13.610Z,3.20
2019-04-25T17:20:50.073Z,3.00
2019-04-25T17:23:18.801Z,3.70
2019-04-25T17:25:47.354Z,3.20
2019-04-25T17:28:16.068Z,3.00
2019-04-25T17:30:46.330Z,3.10
2019-04-25T17:33:19.298Z,3.13
2019-04-25T17:35:58.498Z,3.50
2019-04-25T17:38:40.506Z,3.50
2019-04-25T17:41:09.026Z,3.77
2019-04-25T17:43:38.487Z,3.80
2019-04-25T17:46:10.886Z,3.20
2019-04-25T17:48:39.176Z,4.17
2019-04-25T17:51:07.722Z,3.67
2019-04-25T17:53:36.458Z,3.47
2019-04-25T17:56:04.919Z,3.47
2019-04-25T17:58:33.319Z,4.13
2019-04-25T18:01:02.134Z,3.47
2019-04-25T18:03:30.282Z,4.00
2019-04-25T18:05:58.868Z,3.50
2019-04-25T18:08:27.098Z,3.90
2019-04-25T18:10:55.696Z,3.60
2019-04-25T18:13:24.276Z,7.83
2019-04-25T18:15:54.463Z,8.77
2019-04-25T18:18:33.441Z,4.90
2019-04-25T18:21:02.058Z,7.50
2019-04-25T18:23:38.654Z,6.30
2019-04-25T18:26:14.770Z,5.00
2019-04-25T18:28:53.740Z,9.53
2019-04-25T18:31:22.013Z,5.93
2019-04-25T18:33:51.846Z,3.80
2019-04-25T18:36:27.666Z,4.60
2019-04-25T18:39:13.956Z,3.50
2019-04-25T18:41:58.676Z,2.90
2019-04-25T18:44:26.822Z,2.60
2019-04-25T18:46:55.072Z,2.93
2019-04-25T18:49:23.251Z,2.50
2019-04-25T18:51:57.805Z,2.83
2019-04-25T18:54:27.498Z,2.70
2019-04-25T18:56:57.294Z,2.20
2019-04-25T18:59:35.906Z,2.10
2019-04-25T19:02:14.747Z,2.03
2019-04-25T19:04:50.139Z,2.00
2019-04-25T19:07:22.837Z,2.00
2019-04-25T19:09:48.242Z,2.50
2019-04-25T19:12:16.591Z,1.90
2019-04-25T19:14:45.859Z,2.30
2019-04-25T19:17:14.178Z,2.70
2019-04-25T19:19:42.330Z,1.70
2019-04-25T19:22:10.483Z,1.60
2019-04-25T19:24:40.346Z,1.70
2019-04-25T19:27:08.690Z,1.80
2019-04-25T19:29:36.956Z,1.70
2019-04-25T19:32:05.170Z,1.70
2019-04-25T19:34:33.488Z,1.77
2019-04-25T19:37:01.637Z,2.10
2019-04-25T19:39:31.494Z,2.03
2019-04-25T19:42:17.937Z,2.23
2019-04-25T19:44:47.086Z,2.20
2019-04-25T19:47:15.518Z,2.17
2019-04-25T19:49:43.782Z,1.90
2019-04-25T19:52:12.125Z,2.00
2019-04-25T19:54:40.896Z,2.10
2019-04-25T19:57:10.111Z,2.17
2019-04-25T19:59:38.341Z,2.17
2019-04-25T20:02:08.316Z,2.20
2019-04-25T20:04:41.823Z,1.97
2019-04-25T20:07:18.417Z,2.20
2019-04-25T20:09:54.274Z,2.23
2019-04-25T20:12:24.166Z,2.10
2019-04-25T20:14:53.511Z,2.20
2019-04-25T20:17:21.864Z,2.00
2019-04-25T20:19:50.099Z,2.30
2019-04-25T20:22:18.314Z,2.37
2019-04-25T20:24:46.565Z,2.80
2019-04-25T20:27:14.706Z,2.20
2019-04-25T20:29:42.958Z,2.40
2019-04-25T20:32:11.110Z,2.50
2019-04-25T20:34:39.367Z,2.50
2019-04-25T20:37:07.586Z,2.67
2019-04-25T20:39:35.875Z,2.80
2019-04-25T20:42:04.078Z,2.50
2019-04-25T20:44:32.285Z,2.43
2019-04-25T20:47:00.506Z,2.53
2019-04-25T20:49:28.720Z,2.87
2019-04-25T20:51:56.898Z,2.90
2019-04-25T20:54:25.124Z,2.80
2019-04-25T20:56:53.352Z,2.90
2019-04-25T20:59:21.630Z,2.80
2019-04-25T21:01:49.850Z,2.80
2019-04-25T21:04:19.764Z,3.23
2019-04-25T21:06:49.281Z,3.00
2019-04-25T21:09:17.677Z,2.90
2019-04-25T21:11:45.840Z,3.57
2019-04-25T21:14:15.722Z,3.17
2019-04-25T21:16:54.430Z,3.43
2019-04-25T21:19:32.934Z,3.47
2019-04-25T21:22:01.145Z,2.90
2019-04-25T21:24:29.529Z,8.63
2019-04-25T21:26:57.972Z,6.83
2019-04-25T21:29:27.114Z,6.20
2019-04-25T21:31:55.307Z,6.37
2019-04-25T21:34:27.538Z,5.43
2019-04-25T21:36:53.535Z,4.50
2019-04-25T21:39:23.706Z,5.50
2019-04-25T21:41:56.242Z,6.93
2019-04-25T21:44:24.659Z,6.20
2019-04-25T21:46:53.667Z,6.10
2019-04-25T21:49:25.161Z,6.27
2019-04-25T21:51:54.134Z,6.10
2019-04-25T21:54:22.651Z,5.40
2019-04-25T21:56:51.071Z,4.80
2019-04-25T21:59:19.669Z,4.07
2019-04-25T22:01:48.144Z,4.20
2019-04-25T22:04:16.397Z,4.20
2019-04-25T22:06:45.004Z,4.50
2019-04-25T22:09:17.817Z,4.63
2019-04-25T22:11:46.374Z,4.63
2019-04-25T22:14:15.465Z,4.47
2019-04-25T22:16:44.094Z,4.20
2019-04-25T22:19:13.071Z,4.30
2019-04-25T22:21:41.577Z,4.60
2019-04-25T22:24:14.210Z,4.43
2019-04-25T22:26:39.793Z,4.70
2019-04-25T22:29:08.465Z,4.20
2019-04-25T22:31:56.953Z,5.10
2019-04-25T22:34:33.380Z,4.53
2019-04-25T22:37:02.114Z,4.77
2019-04-25T22:39:30.326Z,4.70
2019-04-25T22:41:59.572Z,6.40
2019-04-25T22:44:28.854Z,5.50
2019-04-25T22:46:57.559Z,5.40
2019-04-25T22:49:25.730Z,6.47
2019-04-25T22:51:53.853Z,5.83
2019-04-25T22:54:23.065Z,5.27
2019-04-25T22:56:51.337Z,5.17
2019-04-25T22:59:19.870Z,4.50
2019-04-25T23:01:49.634Z,5.37
2019-04-25T23:04:34.418Z,4.80
2019-04-25T23:07:02.638Z,4.80
2019-04-25T23:09:32.917Z,4.40
2019-04-25T23:12:02.078Z,4.87
2019-04-25T23:14:30.656Z,4.87
2019-04-25T23:16:58.778Z,4.97
2019-04-25T23:19:26.942Z,4.53
2019-04-25T23:21:55.413Z,4.87
2019-04-25T23:24:25.287Z,4.80
2019-04-25T23:27:07.968Z,4.37
2019-04-25T23:29:36.254Z,4.97
2019-04-25T23:32:05.776Z,4.20
2019-04-25T23:34:34.524Z,4.83
2019-04-25T23:37:02.646Z,4.47
2019-04-25T23:39:31.078Z,5.00
2019-04-25T23:41:59.282Z,4.90
2019-04-25T23:44:27.444Z,4.50
2019-04-25T23:46:56.002Z,4.40
2019-04-25T23:49:24.163Z,5.40
2019-04-25T23:51:52.642Z,5.00
2019-04-25T23:54:20.870Z,5.00
2019-04-25T23:56:49.002Z,4.57
2019-04-25T23:59:17.776Z,4.53
